DLH1677 LHBP-EDDM
Flight info
| Callsign | DLH1677 |
|---|---|
| Flight time | 0h 53m |
| Altitude | 34000 |
| Route | GILEP DCT ZOLKU DCT ARSIN DCT SITNI DCT BAGSI DCT MATIG DCT AMADI Q113 NAPSA NAPSA1B |
| Aircraft | A321/M-SDE3FGHIRWY/LB1 |
Departure
| Time | 2026-05-04 19:10 |
|---|---|
| Airport | Budapest Liszt Ferenc International Airport (LHBP) |
Arrival
| Time | 2026-05-04 20:03 |
|---|---|
| Airport | Munich Airport (EDDM) |
| Time | Latitude | Longitude | Altitude | Speed | Heading |
|---|---|---|---|---|---|
| 2026-05-04 18:50 | 47.43450 | 19.26169 | 458 ft | 0 kts | 177° |
| 2026-05-04 19:01 | 47.43471 | 19.26168 | 457 ft | 4 kts | 177° |
| 2026-05-04 19:01 | 47.43498 | 19.26166 | 453 ft | 4 kts | 177° |
| 2026-05-04 19:02 | 47.43524 | 19.26164 | 455 ft | 4 kts | 178° |
| 2026-05-04 19:02 | 47.43551 | 19.26166 | 456 ft | 4 kts | 193° |
| 2026-05-04 19:02 | 47.43576 | 19.26178 | 457 ft | 4 kts | 204° |
| 2026-05-04 19:02 | 47.43597 | 19.26193 | 456 ft | 1 kts | 206° |
| 2026-05-04 19:03 | 47.43599 | 19.26195 | 456 ft | 0 kts | 206° |
| 2026-05-04 19:06 | 47.43572 | 19.26172 | 453 ft | 8 kts | 221° |
| 2026-05-04 19:07 | 47.43584 | 19.26146 | 457 ft | 4 kts | 348° |
| 2026-05-04 19:07 | 47.43636 | 19.26125 | 457 ft | 11 kts | 331° |
| 2026-05-04 19:07 | 47.43693 | 19.26040 | 457 ft | 12 kts | 312° |
| 2026-05-04 19:07 | 47.43763 | 19.25971 | 457 ft | 12 kts | 4° |
| 2026-05-04 19:08 | 47.43836 | 19.26047 | 456 ft | 13 kts | 43° |
| 2026-05-04 19:08 | 47.43865 | 19.26086 | 457 ft | 5 kts | 42° |
| 2026-05-04 19:08 | 47.43895 | 19.26126 | 458 ft | 6 kts | 42° |
| 2026-05-04 19:08 | 47.43937 | 19.26183 | 458 ft | 13 kts | 42° |
| 2026-05-04 19:09 | 47.44027 | 19.26305 | 462 ft | 19 kts | 43° |
| 2026-05-04 19:09 | 47.44071 | 19.26449 | 471 ft | 13 kts | 81° |
| 2026-05-04 19:09 | 47.44041 | 19.26569 | 470 ft | 5 kts | 131° |
| 2026-05-04 19:09 | 47.44038 | 19.26574 | 470 ft | 2 kts | 132° |
| 2026-05-04 19:10 | 47.43938 | 19.26736 | 468 ft | 56 kts | 133° |
| 2026-05-04 19:10 | 47.43513 | 19.27419 | 472 ft | 123 kts | 132° |
| 2026-05-04 19:10 | 47.42808 | 19.28555 | 461 ft | 174 kts | 132° |
| 2026-05-04 19:10 | 47.42057 | 19.29912 | 1141 ft | 169 kts | 123° |
| 2026-05-04 19:11 | 47.41457 | 19.31449 | 1739 ft | 176 kts | 124° |
| 2026-05-04 19:11 | 47.40826 | 19.33105 | 2160 ft | 196 kts | 124° |
| 2026-05-04 19:11 | 47.40128 | 19.34939 | 2378 ft | 215 kts | 123° |
| 2026-05-04 19:11 | 47.39357 | 19.36963 | 2569 ft | 235 kts | 123° |
| 2026-05-04 19:12 | 47.38532 | 19.39074 | 3099 ft | 239 kts | 127° |
| 2026-05-04 19:12 | 47.35521 | 19.40644 | 4003 ft | 253 kts | 200° |
| 2026-05-04 19:12 | 47.34110 | 19.39119 | 4679 ft | 258 kts | 231° |
| 2026-05-04 19:13 | 47.33186 | 19.36816 | 5370 ft | 263 kts | 243° |
| 2026-05-04 19:13 | 47.32429 | 19.34335 | 6095 ft | 267 kts | 245° |
| 2026-05-04 19:13 | 47.31660 | 19.31826 | 6766 ft | 271 kts | 244° |
| 2026-05-04 19:13 | 47.31077 | 19.29174 | 7409 ft | 276 kts | 263° |
| 2026-05-04 19:14 | 47.31221 | 19.26333 | 8069 ft | 281 kts | 278° |
| 2026-05-04 19:14 | 47.31549 | 19.23485 | 8759 ft | 283 kts | 278° |
| 2026-05-04 19:14 | 47.31882 | 19.20610 | 9445 ft | 286 kts | 278° |
| 2026-05-04 19:14 | 47.32215 | 19.17703 | 10118 ft | 289 kts | 278° |
| 2026-05-04 19:15 | 47.32443 | 19.15687 | 10291 ft | 302 kts | 278° |
| 2026-05-04 19:15 | 47.32797 | 19.12530 | 10419 ft | 323 kts | 278° |
| 2026-05-04 19:15 | 47.33305 | 19.07978 | 10612 ft | 348 kts | 278° |
| 2026-05-04 19:15 | 47.33566 | 19.05621 | 10878 ft | 354 kts | 278° |
| 2026-05-04 19:16 | 47.33967 | 19.02022 | 11410 ft | 358 kts | 278° |
| 2026-05-04 19:16 | 47.34372 | 18.98386 | 11993 ft | 361 kts | 278° |
| 2026-05-04 19:16 | 47.34777 | 18.94716 | 12573 ft | 364 kts | 278° |
| 2026-05-04 19:16 | 47.35184 | 18.91019 | 13155 ft | 367 kts | 278° |
| 2026-05-04 19:17 | 47.35593 | 18.87290 | 13726 ft | 370 kts | 278° |
| 2026-05-04 19:17 | 47.36003 | 18.83530 | 14246 ft | 373 kts | 278° |
| 2026-05-04 19:17 | 47.36414 | 18.79736 | 14758 ft | 376 kts | 278° |
| 2026-05-04 19:17 | 47.36827 | 18.75914 | 15276 ft | 378 kts | 278° |
| 2026-05-04 19:18 | 47.37241 | 18.72078 | 15788 ft | 381 kts | 278° |
| 2026-05-04 19:18 | 47.37657 | 18.68205 | 16309 ft | 383 kts | 278° |
| 2026-05-04 19:18 | 47.38074 | 18.64311 | 16840 ft | 386 kts | 278° |
| 2026-05-04 19:18 | 47.38492 | 18.60388 | 17355 ft | 388 kts | 278° |
| 2026-05-04 19:19 | 47.38911 | 18.56443 | 17845 ft | 390 kts | 278° |
| 2026-05-04 19:19 | 47.39334 | 18.52478 | 18335 ft | 392 kts | 278° |
| 2026-05-04 19:19 | 47.39761 | 18.48487 | 18742 ft | 395 kts | 278° |
| 2026-05-04 19:19 | 47.40192 | 18.44426 | 19183 ft | 397 kts | 278° |
| 2026-05-04 19:20 | 47.40618 | 18.40390 | 19598 ft | 399 kts | 278° |
| 2026-05-04 19:20 | 47.41046 | 18.36342 | 20034 ft | 400 kts | 278° |
| 2026-05-04 19:20 | 47.41474 | 18.32273 | 20436 ft | 402 kts | 278° |
| 2026-05-04 19:20 | 47.41901 | 18.28177 | 20850 ft | 404 kts | 278° |
| 2026-05-04 19:21 | 47.42325 | 18.24081 | 21246 ft | 407 kts | 278° |
| 2026-05-04 19:21 | 47.42751 | 18.19943 | 21655 ft | 408 kts | 278° |
| 2026-05-04 19:21 | 47.43180 | 18.15780 | 22084 ft | 410 kts | 278° |
| 2026-05-04 19:21 | 47.43608 | 18.11613 | 22518 ft | 411 kts | 278° |
| 2026-05-04 19:22 | 47.44035 | 18.07422 | 22875 ft | 414 kts | 278° |
| 2026-05-04 19:22 | 47.44463 | 18.03207 | 23264 ft | 416 kts | 279° |
| 2026-05-04 19:22 | 47.44892 | 17.98964 | 23614 ft | 419 kts | 279° |
| 2026-05-04 19:22 | 47.45323 | 17.94696 | 23942 ft | 421 kts | 279° |
| 2026-05-04 19:23 | 47.45754 | 17.90407 | 24255 ft | 423 kts | 279° |
| 2026-05-04 19:23 | 47.46184 | 17.86106 | 24576 ft | 424 kts | 279° |
| 2026-05-04 19:23 | 47.46619 | 17.81778 | 24883 ft | 426 kts | 279° |
| 2026-05-04 19:23 | 47.47054 | 17.77432 | 25179 ft | 428 kts | 279° |
| 2026-05-04 19:24 | 47.47490 | 17.73060 | 25457 ft | 431 kts | 278° |
| 2026-05-04 19:24 | 47.47925 | 17.68666 | 25761 ft | 433 kts | 278° |
| 2026-05-04 19:24 | 47.48360 | 17.64254 | 26073 ft | 435 kts | 278° |
| 2026-05-04 19:24 | 47.48795 | 17.59824 | 26369 ft | 437 kts | 278° |
| 2026-05-04 19:25 | 47.49229 | 17.55373 | 26665 ft | 439 kts | 278° |
| 2026-05-04 19:25 | 47.49662 | 17.50894 | 26951 ft | 441 kts | 278° |
| 2026-05-04 19:25 | 47.50094 | 17.46396 | 27248 ft | 443 kts | 278° |
| 2026-05-04 19:25 | 47.50528 | 17.41885 | 27535 ft | 444 kts | 278° |
| 2026-05-04 19:26 | 47.50965 | 17.37346 | 27816 ft | 446 kts | 278° |
| 2026-05-04 19:26 | 47.51401 | 17.32804 | 28087 ft | 447 kts | 278° |
| 2026-05-04 19:26 | 47.51834 | 17.28237 | 28342 ft | 449 kts | 278° |
| 2026-05-04 19:26 | 47.52268 | 17.23652 | 28603 ft | 450 kts | 278° |
| 2026-05-04 19:27 | 47.52708 | 17.19000 | 28848 ft | 451 kts | 278° |
| 2026-05-04 19:27 | 47.53143 | 17.14391 | 29076 ft | 453 kts | 278° |
| 2026-05-04 19:27 | 47.53569 | 17.09833 | 29326 ft | 453 kts | 278° |
| 2026-05-04 19:27 | 47.54003 | 17.05156 | 29628 ft | 453 kts | 278° |
| 2026-05-04 19:28 | 47.54428 | 17.00544 | 29949 ft | 452 kts | 278° |
| 2026-05-04 19:28 | 47.54850 | 16.95947 | 30231 ft | 451 kts | 278° |
| 2026-05-04 19:28 | 47.55271 | 16.91359 | 30550 ft | 448 kts | 278° |
| 2026-05-04 19:28 | 47.55688 | 16.86803 | 30877 ft | 445 kts | 278° |
| 2026-05-04 19:29 | 47.56100 | 16.82259 | 31154 ft | 445 kts | 278° |
| 2026-05-04 19:29 | 47.56525 | 16.77725 | 31429 ft | 443 kts | 281° |
| 2026-05-04 19:29 | 47.57274 | 16.73315 | 31713 ft | 441 kts | 289° |
| 2026-05-04 19:29 | 47.58366 | 16.69088 | 32026 ft | 439 kts | 291° |
| 2026-05-04 19:30 | 47.59476 | 16.64896 | 32359 ft | 437 kts | 291° |
| 2026-05-04 19:30 | 47.60588 | 16.60703 | 32565 ft | 437 kts | 291° |
| 2026-05-04 19:30 | 47.61694 | 16.56511 | 32825 ft | 436 kts | 291° |
| 2026-05-04 19:30 | 47.62796 | 16.52322 | 33068 ft | 436 kts | 291° |
| 2026-05-04 19:31 | 47.63896 | 16.48131 | 33301 ft | 436 kts | 291° |
| 2026-05-04 19:31 | 47.64990 | 16.43946 | 33599 ft | 434 kts | 291° |
| 2026-05-04 19:31 | 47.66073 | 16.39774 | 33870 ft | 433 kts | 291° |
| 2026-05-04 19:32 | 47.68223 | 16.31472 | 33953 ft | 429 kts | 291° |
| 2026-05-04 19:32 | 47.70364 | 16.23209 | 33958 ft | 428 kts | 290° |
| 2026-05-04 19:33 | 47.72509 | 16.14918 | 33965 ft | 436 kts | 290° |
| 2026-05-04 19:33 | 47.74703 | 16.06410 | 33959 ft | 445 kts | 290° |
| 2026-05-04 19:34 | 47.76922 | 15.97752 | 33957 ft | 449 kts | 290° |
| 2026-05-04 19:34 | 47.79139 | 15.89060 | 33957 ft | 450 kts | 290° |
| 2026-05-04 19:35 | 47.81352 | 15.80352 | 33973 ft | 450 kts | 290° |
| 2026-05-04 19:35 | 47.83560 | 15.71624 | 33965 ft | 450 kts | 289° |
| 2026-05-04 19:35 | 47.84660 | 15.67265 | 33952 ft | 438 kts | 289° |
| 2026-05-04 19:36 | 47.85722 | 15.63057 | 33949 ft | 432 kts | 289° |
| 2026-05-04 19:36 | 47.87814 | 15.54732 | 33948 ft | 430 kts | 289° |
| 2026-05-04 19:37 | 47.89907 | 15.46389 | 33941 ft | 431 kts | 290° |
| 2026-05-04 19:37 | 47.92006 | 15.37992 | 33944 ft | 433 kts | 289° |
| 2026-05-04 19:38 | 47.94105 | 15.29561 | 33942 ft | 435 kts | 288° |
| 2026-05-04 19:38 | 47.96198 | 15.21099 | 33936 ft | 435 kts | 289° |
| 2026-05-04 19:39 | 47.98288 | 15.12627 | 33938 ft | 435 kts | 288° |
| 2026-05-04 19:39 | 48.00369 | 15.04150 | 33933 ft | 435 kts | 288° |
| 2026-05-04 19:40 | 48.02450 | 14.95660 | 33929 ft | 436 kts | 288° |
| 2026-05-04 19:40 | 48.04521 | 14.87127 | 33917 ft | 436 kts | 285° |
| 2026-05-04 19:41 | 48.05473 | 14.78260 | 33907 ft | 432 kts | 269° |
| 2026-05-04 19:41 | 48.05540 | 14.69275 | 33905 ft | 433 kts | 269° |
| 2026-05-04 19:42 | 48.05616 | 14.60281 | 33909 ft | 433 kts | 269° |
| 2026-05-04 19:42 | 48.05678 | 14.51279 | 33909 ft | 433 kts | 269° |
| 2026-05-04 19:43 | 48.05724 | 14.42263 | 33901 ft | 435 kts | 269° |
| 2026-05-04 19:43 | 48.05755 | 14.33103 | 33895 ft | 446 kts | 269° |
| 2026-05-04 19:44 | 48.05793 | 14.23713 | 33894 ft | 451 kts | 269° |
| 2026-05-04 19:44 | 48.05833 | 14.14317 | 33899 ft | 451 kts | 268° |
| 2026-05-04 19:45 | 48.05864 | 14.05006 | 33895 ft | 442 kts | 268° |
| 2026-05-04 19:45 | 48.05885 | 13.95858 | 33898 ft | 439 kts | 268° |
| 2026-05-04 19:46 | 48.05891 | 13.86742 | 33366 ft | 435 kts | 268° |
| 2026-05-04 19:46 | 48.05892 | 13.82240 | 33089 ft | 432 kts | 268° |
| 2026-05-04 19:46 | 48.05892 | 13.77735 | 32821 ft | 434 kts | 268° |
| 2026-05-04 19:46 | 48.05890 | 13.73224 | 32569 ft | 434 kts | 268° |
| 2026-05-04 19:47 | 48.05888 | 13.68713 | 32271 ft | 434 kts | 268° |
| 2026-05-04 19:47 | 48.05885 | 13.65719 | 31725 ft | 436 kts | 268° |
| 2026-05-04 19:47 | 48.05878 | 13.61172 | 30902 ft | 438 kts | 268° |
| 2026-05-04 19:47 | 48.05867 | 13.56622 | 30003 ft | 437 kts | 268° |
| 2026-05-04 19:48 | 48.05893 | 13.52093 | 28988 ft | 434 kts | 270° |
| 2026-05-04 19:48 | 48.06048 | 13.47619 | 28088 ft | 431 kts | 272° |
| 2026-05-04 19:48 | 48.06296 | 13.43119 | 26970 ft | 438 kts | 274° |
| 2026-05-04 19:48 | 48.06595 | 13.38584 | 26173 ft | 438 kts | 275° |
| 2026-05-04 19:49 | 48.06897 | 13.34082 | 25455 ft | 432 kts | 275° |
| 2026-05-04 19:49 | 48.07181 | 13.29634 | 24534 ft | 427 kts | 274° |
| 2026-05-04 19:49 | 48.07438 | 13.25244 | 23653 ft | 421 kts | 274° |
| 2026-05-04 19:49 | 48.07670 | 13.20901 | 22635 ft | 416 kts | 273° |
| 2026-05-04 19:50 | 48.07890 | 13.16565 | 21628 ft | 409 kts | 273° |
| 2026-05-04 19:50 | 48.08099 | 13.12350 | 20675 ft | 403 kts | 273° |
| 2026-05-04 19:50 | 48.08302 | 13.08198 | 19758 ft | 398 kts | 273° |
| 2026-05-04 19:50 | 48.08503 | 13.04096 | 18877 ft | 393 kts | 272° |
| 2026-05-04 19:51 | 48.08703 | 13.00052 | 18006 ft | 388 kts | 272° |
| 2026-05-04 19:51 | 48.08900 | 12.96059 | 17082 ft | 382 kts | 272° |
| 2026-05-04 19:51 | 48.09096 | 12.92133 | 16197 ft | 376 kts | 272° |
| 2026-05-04 19:51 | 48.09341 | 12.88265 | 15278 ft | 372 kts | 274° |
| 2026-05-04 19:52 | 48.09676 | 12.84457 | 14441 ft | 367 kts | 276° |
| 2026-05-04 19:52 | 48.10399 | 12.80827 | 13612 ft | 366 kts | 292° |
| 2026-05-04 19:52 | 48.11754 | 12.77610 | 12642 ft | 364 kts | 302° |
| 2026-05-04 19:52 | 48.13207 | 12.74535 | 11715 ft | 361 kts | 302° |
| 2026-05-04 19:53 | 48.14659 | 12.71484 | 10806 ft | 357 kts | 302° |
| 2026-05-04 19:53 | 48.16094 | 12.68475 | 10176 ft | 354 kts | 302° |
| 2026-05-04 19:53 | 48.17531 | 12.65448 | 9994 ft | 357 kts | 302° |
| 2026-05-04 19:53 | 48.18955 | 12.62442 | 9879 ft | 345 kts | 302° |
| 2026-05-04 19:54 | 48.20300 | 12.59605 | 9867 ft | 325 kts | 302° |
| 2026-05-04 19:54 | 48.21573 | 12.56901 | 9749 ft | 310 kts | 302° |
| 2026-05-04 19:54 | 48.22789 | 12.54315 | 9584 ft | 296 kts | 302° |
| 2026-05-04 19:54 | 48.23960 | 12.51828 | 9094 ft | 289 kts | 302° |
| 2026-05-04 19:55 | 48.25109 | 12.49368 | 8528 ft | 287 kts | 302° |
| 2026-05-04 19:55 | 48.26243 | 12.46912 | 7952 ft | 285 kts | 302° |
| 2026-05-04 19:55 | 48.27363 | 12.44459 | 7425 ft | 285 kts | 302° |
| 2026-05-04 19:55 | 48.28475 | 12.41998 | 7069 ft | 284 kts | 302° |
| 2026-05-04 19:56 | 48.29597 | 12.39524 | 6698 ft | 282 kts | 302° |
| 2026-05-04 19:56 | 48.30709 | 12.37107 | 6328 ft | 281 kts | 303° |
| 2026-05-04 19:56 | 48.31814 | 12.34682 | 5925 ft | 280 kts | 303° |
| 2026-05-04 19:56 | 48.32905 | 12.32262 | 5544 ft | 279 kts | 303° |
| 2026-05-04 19:57 | 48.33961 | 12.29890 | 5407 ft | 268 kts | 303° |
| 2026-05-04 19:57 | 48.34976 | 12.27605 | 5290 ft | 257 kts | 303° |
| 2026-05-04 19:57 | 48.35944 | 12.25414 | 5142 ft | 246 kts | 303° |
| 2026-05-04 19:57 | 48.36856 | 12.23256 | 5023 ft | 245 kts | 297° |
| 2026-05-04 19:58 | 48.37588 | 12.20947 | 4982 ft | 245 kts | 293° |
| 2026-05-04 19:58 | 48.38255 | 12.18655 | 4984 ft | 233 kts | 292° |
| 2026-05-04 19:58 | 48.38888 | 12.16428 | 4985 ft | 229 kts | 289° |
| 2026-05-04 19:58 | 48.39084 | 12.14085 | 4995 ft | 227 kts | 263° |
| 2026-05-04 19:59 | 48.38910 | 12.11736 | 5001 ft | 225 kts | 262° |
| 2026-05-04 19:59 | 48.38732 | 12.09402 | 4914 ft | 225 kts | 262° |
| 2026-05-04 19:59 | 48.38558 | 12.07068 | 4668 ft | 224 kts | 262° |
| 2026-05-04 19:59 | 48.38392 | 12.04816 | 4396 ft | 208 kts | 262° |
| 2026-05-04 20:00 | 48.38239 | 12.02744 | 4142 ft | 189 kts | 262° |
| 2026-05-04 20:00 | 48.38098 | 12.00853 | 3886 ft | 176 kts | 263° |
| 2026-05-04 20:00 | 48.37966 | 11.99088 | 3662 ft | 164 kts | 263° |
| 2026-05-04 20:00 | 48.37840 | 11.97401 | 3456 ft | 160 kts | 263° |
| 2026-05-04 20:01 | 48.37716 | 11.95743 | 3257 ft | 159 kts | 263° |
| 2026-05-04 20:01 | 48.37592 | 11.94095 | 3051 ft | 158 kts | 264° |
| 2026-05-04 20:01 | 48.37472 | 11.92447 | 2851 ft | 158 kts | 264° |
| 2026-05-04 20:01 | 48.37357 | 11.90800 | 2636 ft | 159 kts | 264° |
| 2026-05-04 20:02 | 48.37230 | 11.89158 | 2410 ft | 157 kts | 263° |
| 2026-05-04 20:02 | 48.37104 | 11.87543 | 2199 ft | 154 kts | 265° |
| 2026-05-04 20:02 | 48.36994 | 11.85957 | 1980 ft | 151 kts | 263° |
| 2026-05-04 20:02 | 48.36863 | 11.84398 | 1819 ft | 150 kts | 264° |
| 2026-05-04 20:03 | 48.36744 | 11.82828 | 1638 ft | 149 kts | 264° |
| 2026-05-04 20:03 | 48.36631 | 11.81310 | 1493 ft | 147 kts | 264° |
| 2026-05-04 20:03 | 48.36519 | 11.79922 | 1482 ft | 110 kts | 263° |
| 2026-05-04 20:03 | 48.36461 | 11.79158 | 1485 ft | 33 kts | 262° |
| 2026-05-04 20:04 | 48.36378 | 11.78862 | 1485 ft | 31 kts | 234° |
| 2026-05-04 20:04 | 48.36292 | 11.78687 | 1478 ft | 11 kts | 233° |
| 2026-05-04 20:04 | 48.36244 | 11.78590 | 1471 ft | 12 kts | 233° |
| 2026-05-04 20:04 | 48.36187 | 11.78488 | 1482 ft | 13 kts | 215° |
| 2026-05-04 20:05 | 48.36094 | 11.78484 | 1481 ft | 14 kts | 175° |
| 2026-05-04 20:05 | 48.36038 | 11.78557 | 1478 ft | 0 kts | 92° |
| 2026-05-04 20:05 | 48.36037 | 11.78571 | 1477 ft | 5 kts | 92° |
| 2026-05-04 20:05 | 48.36043 | 11.78665 | 1485 ft | 11 kts | 84° |
| 2026-05-04 20:06 | 48.36052 | 11.78786 | 1474 ft | 12 kts | 83° |
| 2026-05-04 20:06 | 48.36063 | 11.78922 | 1478 ft | 14 kts | 83° |
| 2026-05-04 20:06 | 48.36067 | 11.78978 | 1481 ft | 6 kts | 83° |
| 2026-05-04 20:06 | 48.36072 | 11.79043 | 1485 ft | 7 kts | 83° |
| 2026-05-04 20:07 | 48.36079 | 11.79126 | 1476 ft | 9 kts | 83° |
| 2026-05-04 20:07 | 48.36086 | 11.79226 | 1481 ft | 9 kts | 83° |
| 2026-05-04 20:07 | 48.36088 | 11.79244 | 1477 ft | 2 kts | 84° |
| 2026-05-04 20:07 | 48.36081 | 11.79303 | 1485 ft | 11 kts | 129° |
| 2026-05-04 20:08 | 48.36017 | 11.79329 | 1476 ft | 0 kts | 172° |
| 2026-05-04 20:08 | 48.35999 | 11.79332 | 1482 ft | 7 kts | 173° |
| 2026-05-04 20:08 | 48.35922 | 11.79345 | 1485 ft | 12 kts | 186° |
| 2026-05-04 20:08 | 48.35893 | 11.79247 | 1485 ft | 11 kts | 263° |
| 2026-05-04 20:09 | 48.35890 | 11.79209 | 1475 ft | 0 kts | 263° |